Time;durP1;ratioP1;P1;durP2;ratioP2;P2;SDS_P1;SDS_P2;PMS_P1;PMS_P2;Temp;Humidity;BMP_temperature;BMP_pressure;BME280_temperature;BME280_humidity;BME280_pressure;Samples;Min_cycle;Max_cycle;Signal;HPM_P1;HPM_P2
2023/03/23 00:01:26;;;;;;;3.70;1.60;;;13.10;90.60;;;;;;5053368;28;20456;-64
2023/03/23 00:03:56;;;;;;;3.47;1.70;;;12.90;91.60;;;;;;5053325;28;20538;-64
2023/03/23 00:06:24;;;;;;;2.17;1.63;;;12.80;93.40;;;;;;5052831;28;20460;-63
2023/03/23 00:08:59;;;;;;;2.97;1.77;;;12.70;94.80;;;;;;5053059;28;20464;-63
2023/03/23 00:11:28;;;;;;;2.70;1.87;;;12.60;96.40;;;;;;5053036;28;20436;-64
2023/03/23 00:14:00;;;;;;;3.47;1.80;;;12.30;98.40;;;;;;5052965;28;20498;-63
2023/03/23 00:16:30;;;;;;;2.47;1.93;;;12.10;99.90;;;;;;5053122;28;20521;-62
2023/03/23 00:18:58;;;;;;;5.17;2.13;;;11.90;99.90;;;;;;5053411;28;20483;-62
2023/03/23 00:21:33;;;;;;;2.60;2.03;;;11.80;99.90;;;;;;5052866;28;20440;-62
2023/03/23 00:24:02;;;;;;;3.30;1.90;;;11.70;99.90;;;;;;5052758;28;20439;-63
2023/03/23 00:26:33;;;;;;;3.97;2.20;;;11.60;99.90;;;;;;5053547;28;20436;-63
2023/03/23 00:29:01;;;;;;;7.67;3.23;;;11.60;99.90;;;;;;5056831;28;20537;-63
2023/03/23 00:31:31;;;;;;;4.40;2.37;;;11.60;99.90;;;;;;5056700;28;20930;-63
2023/03/23 00:33:58;;;;;;;2.93;2.73;;;11.60;99.90;;;;;;5056501;28;20929;-63
2023/03/23 00:36:26;;;;;;;3.63;2.57;;;11.70;99.90;;;;;;5056622;28;21019;-63
2023/03/23 00:38:52;;;;;;;4.20;2.80;;;11.70;99.90;;;;;;5056540;28;20574;-63
2023/03/23 00:41:21;;;;;;;2.80;2.40;;;11.70;99.90;;;;;;5056706;28;20446;-63
2023/03/23 00:43:48;;;;;;;3.50;2.50;;;11.70;99.90;;;;;;5056704;28;20792;-63
2023/03/23 00:46:15;;;;;;;7.10;2.90;;;11.70;99.90;;;;;;5056480;28;20462;-63
2023/03/23 00:48:44;;;;;;;3.10;2.37;;;11.70;99.90;;;;;;5056214;28;20653;-63
2023/03/23 00:51:11;;;;;;;4.77;2.70;;;11.70;99.90;;;;;;5056562;28;20460;-63
2023/03/23 00:53:38;;;;;;;4.47;2.53;;;11.70;99.90;;;;;;5056951;28;20448;-63
2023/03/23 00:56:06;;;;;;;3.23;1.93;;;11.70;99.90;;;;;;5056273;28;20479;-63
2023/03/23 00:58:35;;;;;;;3.73;2.67;;;11.70;99.90;;;;;;5055997;28;20491;-63
2023/03/23 01:01:02;;;;;;;6.67;2.70;;;11.70;99.90;;;;;;5056287;28;20543;-63
2023/03/23 01:03:29;;;;;;;3.50;2.40;;;11.70;99.90;;;;;;5056451;28;20476;-64
2023/03/23 01:05:56;;;;;;;2.63;2.27;;;11.70;99.90;;;;;;5056141;28;20934;-63
2023/03/23 01:08:24;;;;;;;4.63;2.60;;;11.70;99.90;;;;;;5056168;28;20475;-63
2023/03/23 01:10:53;;;;;;;5.50;2.97;;;11.70;99.90;;;;;;5055850;28;20471;-63
2023/03/23 01:13:22;;;;;;;4.00;2.40;;;11.70;99.90;;;;;;5056197;28;20452;-63
2023/03/23 01:15:50;;;;;;;4.13;2.67;;;11.80;99.90;;;;;;5056046;28;20451;-63
2023/03/23 01:18:17;;;;;;;3.83;2.70;;;11.80;99.90;;;;;;5055683;28;20476;-63
2023/03/23 01:20:44;;;;;;;4.23;1.90;;;11.80;99.90;;;;;;5056051;28;20494;-63
2023/03/23 01:23:11;;;;;;;4.00;2.70;;;11.80;99.90;;;;;;5055985;28;20440;-63
2023/03/23 01:25:38;;;;;;;4.00;2.70;;;11.80;99.90;;;;;;5056319;28;20464;-63
2023/03/23 01:28:05;;;;;;;2.90;2.60;;;11.80;99.90;;;;;;5055561;28;20977;-63
2023/03/23 01:30:32;;;;;;;3.47;2.13;;;11.80;99.90;;;;;;5055825;28;20868;-63
2023/03/23 01:33:00;;;;;;;4.00;2.50;;;11.80;99.90;;;;;;5055399;28;20444;-63
2023/03/23 01:35:26;;;;;;;4.70;2.40;;;11.80;99.90;;;;;;5055676;28;20455;-63
2023/03/23 01:37:53;;;;;;;4.10;3.00;;;11.80;99.90;;;;;;5054595;28;20492;-63
2023/03/23 01:40:20;;;;;;;5.53;2.60;;;11.80;99.90;;;;;;5055698;28;20429;-63
2023/03/23 01:42:47;;;;;;;3.93;3.00;;;11.80;99.90;;;;;;5055652;28;20444;-63
2023/03/23 01:45:31;;;;;;;2.43;2.20;;;11.80;99.90;;;;;;5055332;28;20973;-63
2023/03/23 01:48:07;;;;;;;6.47;3.33;;;11.70;99.90;;;;;;5055238;28;20835;-63
2023/03/23 01:50:40;;;;;;;4.47;2.10;;;11.70;99.90;;;;;;5056134;28;20435;-64
2023/03/23 01:53:10;;;;;;;6.17;3.37;;;11.70;99.90;;;;;;5055567;28;20519;-62
2023/03/23 01:55:40;;;;;;;4.20;2.50;;;11.70;99.90;;;;;;5055179;28;20997;-64
2023/03/23 01:58:09;;;;;;;6.13;2.43;;;11.70;99.90;;;;;;5055374;28;20483;-64
2023/03/23 02:00:37;;;;;;;6.17;2.73;;;11.70;99.90;;;;;;5055443;28;20440;-64
2023/03/23 02:03:05;;;;;;;3.07;2.43;;;11.70;99.90;;;;;;5055373;28;20480;-64
2023/03/23 02:05:38;;;;;;;2.87;2.40;;;11.60;99.90;;;;;;5055272;28;20527;-64
2023/03/23 02:08:08;;;;;;;5.03;2.40;;;11.60;99.90;;;;;;5055211;28;20460;-63
2023/03/23 02:10:36;;;;;;;5.27;2.43;;;11.60;99.90;;;;;;5054882;28;20452;-63
2023/03/23 02:13:06;;;;;;;4.10;2.77;;;11.60;99.90;;;;;;5054871;28;20956;-64
2023/03/23 02:15:44;;;;;;;3.03;2.47;;;11.70;99.90;;;;;;5055142;28;20817;-63
2023/03/23 02:18:27;;;;;;;3.40;2.60;;;11.70;99.90;;;;;;5054968;28;20484;-63
2023/03/23 02:21:27;;;;;;;3.20;2.87;;;11.70;99.90;;;;;;5055131;28;20432;-62
2023/03/23 02:24:29;;;;;;;2.30;2.10;;;11.70;99.90;;;;;;5054571;28;20934;-63
2023/03/23 02:27:00;;;;;;;11.33;2.20;;;11.70;99.90;;;;;;5007857;28;20467;-63
2023/03/23 02:29:56;;;;;;;3.70;2.17;;;11.80;99.90;;;;;;5055013;28;20464;-63
2023/03/23 02:32:50;;;;;;;2.33;2.13;;;11.80;99.90;;;;;;5054883;28;20837;-63
2023/03/23 02:35:21;;;;;;;3.93;2.20;;;11.80;99.90;;;;;;5054653;28;20433;-63
2023/03/23 02:37:51;;;;;;;2.77;2.40;;;11.80;99.90;;;;;;5054707;28;20565;-61
2023/03/23 02:40:21;;;;;;;3.57;2.57;;;11.80;99.90;;;;;;5054174;28;20433;-63
2023/03/23 02:42:52;;;;;;;2.70;2.10;;;11.80;99.90;;;;;;5054666;28;20812;-63
2023/03/23 02:45:21;;;;;;;3.73;2.43;;;11.80;99.90;;;;;;5054807;28;20508;-63
2023/03/23 02:47:51;;;;;;;2.90;2.50;;;11.80;99.90;;;;;;5054863;28;20468;-63
2023/03/23 02:50:23;;;;;;;4.20;2.80;;;11.80;99.90;;;;;;5053863;28;20440;-63
2023/03/23 02:52:51;;;;;;;3.20;2.17;;;11.70;99.90;;;;;;5054907;28;20433;-63
2023/03/23 02:55:19;;;;;;;5.33;2.60;;;11.70;99.90;;;;;;5054824;28;20450;-63
2023/03/23 02:57:47;;;;;;;2.97;2.30;;;11.70;99.90;;;;;;5054544;28;20859;-63
2023/03/23 03:00:18;;;;;;;3.50;2.10;;;11.70;99.90;;;;;;5054537;28;20809;-63
2023/03/23 03:02:52;;;;;;;2.83;2.47;;;11.70;99.90;;;;;;5054110;28;20472;-63
2023/03/23 03:05:30;;;;;;;4.17;2.20;;;11.70;99.90;;;;;;5054306;28;20440;-63
2023/03/23 03:08:07;;;;;;;3.63;2.10;;;11.70;99.90;;;;;;5054266;28;20463;-63
2023/03/23 03:10:43;;;;;;;2.33;1.77;;;11.80;99.90;;;;;;5054311;28;20432;-63
2023/03/23 03:13:18;;;;;;;2.83;2.47;;;11.80;99.90;;;;;;5054220;28;20428;-63
2023/03/23 03:15:50;;;;;;;3.70;2.87;;;11.80;99.90;;;;;;5054255;28;20427;-64
2023/03/23 03:18:23;;;;;;;2.73;2.50;;;11.80;99.90;;;;;;5053853;28;20494;-63
2023/03/23 03:20:55;;;;;;;4.50;3.07;;;11.70;99.90;;;;;;5053740;28;20428;-63
2023/03/23 03:23:24;;;;;;;4.70;2.77;;;11.70;99.90;;;;;;5053517;28;20425;-63
2023/03/23 03:25:54;;;;;;;4.27;2.97;;;11.60;99.90;;;;;;5053409;28;20455;-63
2023/03/23 03:28:22;;;;;;;2.93;2.10;;;11.50;99.90;;;;;;5053550;28;20460;-63
2023/03/23 03:30:53;;;;;;;3.83;2.33;;;11.50;99.90;;;;;;5053714;28;20444;-63
2023/03/23 03:33:25;;;;;;;3.50;2.80;;;11.40;99.90;;;;;;5053634;28;20433;-63
2023/03/23 03:35:55;;;;;;;3.90;2.63;;;11.40;99.90;;;;;;5053313;28;20522;-63
2023/03/23 03:38:22;;;;;;;4.27;3.20;;;11.40;99.90;;;;;;5053120;28;20861;-62
2023/03/23 03:40:48;;;;;;;2.70;2.50;;;11.40;99.90;;;;;;5053487;28;20444;-62
2023/03/23 03:43:15;;;;;;;4.00;3.00;;;11.40;99.90;;;;;;5053519;28;20820;-62
2023/03/23 03:45:42;;;;;;;3.50;2.50;;;11.40;99.90;;;;;;5053388;28;20448;-62
2023/03/23 03:48:09;;;;;;;5.60;3.07;;;11.40;99.90;;;;;;5053320;28;20516;-64
2023/03/23 03:50:36;;;;;;;5.30;3.07;;;11.50;99.90;;;;;;5053154;28;20984;-63
2023/03/23 03:53:05;;;;;;;2.90;2.40;;;11.50;99.90;;;;;;5052895;28;20448;-62
2023/03/23 03:55:35;;;;;;;4.67;2.80;;;11.50;99.90;;;;;;5053193;28;20448;-62
2023/03/23 03:58:02;;;;;;;2.43;2.23;;;11.50;99.90;;;;;;5053435;28;20483;-62
2023/03/23 04:00:29;;;;;;;2.70;2.50;;;11.50;99.90;;;;;;5053583;28;20448;-62
2023/03/23 04:02:56;;;;;;;3.10;2.70;;;11.50;99.90;;;;;;5053437;28;20448;-62
2023/03/23 04:05:24;;;;;;;3.70;2.70;;;11.50;99.90;;;;;;5053925;28;20443;-63
2023/03/23 04:08:01;;;;;;;;;;;;;;;;;;;;;
2023/03/23 04:11:25;;;;;;;2.93;2.60;;;11.50;99.90;;;;;;5091771;28;21043;-63
2023/03/23 04:13:52;;;;;;;4.83;3.00;;;11.50;99.90;;;;;;5091083;28;20446;-63
2023/03/23 04:16:20;;;;;;;3.30;2.60;;;11.50;99.90;;;;;;5095799;28;20453;-62
2023/03/23 04:18:47;;;;;;;7.13;2.80;;;11.60;99.90;;;;;;5093925;28;20463;-62
2023/03/23 04:21:15;;;;;;;5.10;2.60;;;11.60;99.90;;;;;;5094869;28;20439;-64
2023/03/23 04:23:42;;;;;;;2.70;2.50;;;11.60;99.90;;;;;;5107035;22;20502;-63
2023/03/23 04:26:12;;;;;;;5.53;2.70;;;11.60;99.90;;;;;;5071943;28;20443;-63
2023/03/23 04:28:41;;;;;;;2.87;2.57;;;11.60;99.90;;;;;;5071697;28;20458;-63
2023/03/23 04:31:08;;;;;;;2.73;2.40;;;11.60;99.90;;;;;;5071478;28;20479;-60
2023/03/23 04:33:36;;;;;;;3.03;2.47;;;11.60;99.90;;;;;;5071899;28;20826;-63
2023/03/23 04:36:06;;;;;;;2.63;2.43;;;11.60;99.90;;;;;;5071091;28;20571;-62
2023/03/23 04:38:34;;;;;;;2.40;2.20;;;11.60;99.90;;;;;;5071901;28;20447;-63
2023/03/23 04:41:01;;;;;;;4.20;3.00;;;11.60;99.90;;;;;;5074393;28;20852;-63
2023/03/23 04:43:29;;;;;;;3.70;2.23;;;11.60;99.90;;;;;;5070137;28;20525;-63
2023/03/23 04:46:00;;;;;;;5.03;2.40;;;11.60;99.90;;;;;;5070355;28;20447;-64
2023/03/23 04:48:29;;;;;;;2.30;2.10;;;11.60;99.90;;;;;;5069993;28;20455;-63
2023/03/23 04:50:59;;;;;;;3.27;2.10;;;11.50;99.90;;;;;;5070375;28;20489;-63
2023/03/23 04:53:26;;;;;;;3.17;2.20;;;11.50;99.90;;;;;;5070015;28;20471;-63
2023/03/23 04:55:53;;;;;;;4.00;2.00;;;11.50;99.90;;;;;;5070172;28;20449;-64
2023/03/23 04:58:20;;;;;;;5.50;1.80;;;11.50;99.90;;;;;;5069904;28;21018;-63
2023/03/23 05:00:49;;;;;;;1.70;1.60;;;11.40;99.90;;;;;;5070544;28;20447;-63
2023/03/23 05:03:17;;;;;;;2.90;2.47;;;11.50;99.90;;;;;;5069531;28;20980;-64
2023/03/23 05:05:46;;;;;;;2.50;2.30;;;11.40;99.90;;;;;;5069725;28;20462;-63
2023/03/23 05:08:14;;;;;;;2.90;2.20;;;11.40;99.90;;;;;;5069505;28;20546;-63
2023/03/23 05:10:41;;;;;;;2.10;1.83;;;11.40;99.90;;;;;;5069399;28;20848;-64
2023/03/23 05:13:08;;;;;;;3.17;2.27;;;11.40;99.90;;;;;;5069438;28;20466;-62
2023/03/23 05:15:35;;;;;;;3.07;2.70;;;11.40;99.90;;;;;;5069163;28;20439;-63
2023/03/23 05:18:02;;;;;;;2.17;1.97;;;11.30;99.90;;;;;;5068904;28;20546;-64
2023/03/23 05:20:30;;;;;;;3.20;2.00;;;11.30;99.90;;;;;;5068848;28;20534;-64
2023/03/23 05:22:57;;;;;;;2.60;2.23;;;11.30;99.90;;;;;;5055043;28;20507;-64
2023/03/23 05:25:24;;;;;;;4.90;3.00;;;11.30;99.90;;;;;;5055983;28;20447;-64
2023/03/23 05:27:52;;;;;;;4.27;2.17;;;11.30;99.90;;;;;;5055412;28;20964;-64
2023/03/23 05:30:19;;;;;;;2.77;1.93;;;11.30;99.90;;;;;;5056632;28;20473;-63
2023/03/23 05:32:50;;;;;;;3.33;2.20;;;11.20;99.90;;;;;;5066632;28;20836;-62
2023/03/23 05:35:17;;;;;;;2.20;2.00;;;11.20;99.90;;;;;;5055446;28;20435;-64
2023/03/23 05:37:46;;;;;;;3.03;2.20;;;11.30;99.90;;;;;;5055811;28;20446;-64
2023/03/23 05:40:14;;;;;;;2.53;1.93;;;11.30;99.90;;;;;;5056583;28;20441;-63
2023/03/23 05:42:42;;;;;;;3.17;2.33;;;11.30;99.90;;;;;;5061003;28;20467;-64
2023/03/23 05:45:10;;;;;;;2.30;2.07;;;11.30;99.90;;;;;;5061729;28;20454;-64
2023/03/23 05:47:37;;;;;;;2.40;1.90;;;11.30;99.90;;;;;;5041750;28;20539;-63
2023/03/23 05:50:06;;;;;;;1.93;1.83;;;11.40;99.90;;;;;;5046261;28;20476;-64
2023/03/23 05:52:35;;;;;;;4.33;2.40;;;11.40;99.90;;;;;;5066280;28;20471;-64
2023/03/23 05:55:04;;;;;;;2.03;1.83;;;11.40;99.90;;;;;;5062619;28;20444;-64
2023/03/23 05:57:31;;;;;;;2.27;2.00;;;11.50;99.90;;;;;;5060324;28;20476;-64
2023/03/23 05:59:59;;;;;;;2.30;1.73;;;11.50;99.90;;;;;;5067814;28;20444;-64
2023/03/23 06:02:28;;;;;;;2.43;1.83;;;11.50;99.90;;;;;;5060914;28;20448;-63
2023/03/23 06:04:57;;;;;;;1.73;1.63;;;11.50;99.90;;;;;;5055618;28;20527;-64
2023/03/23 06:07:24;;;;;;;2.50;1.90;;;11.50;99.90;;;;;;5057431;28;20448;-63
2023/03/23 06:09:51;;;;;;;2.70;2.20;;;11.60;99.90;;;;;;5065507;28;20447;-64
2023/03/23 06:12:20;;;;;;;2.23;2.03;;;11.60;99.90;;;;;;5055850;28;20531;-64
2023/03/23 06:14:47;;;;;;;2.10;1.90;;;11.60;99.90;;;;;;5062906;28;20448;-65
2023/03/23 06:17:15;;;;;;;3.37;1.80;;;11.70;99.90;;;;;;5063912;28;20447;-64
2023/03/23 06:19:42;;;;;;;1.83;1.60;;;11.80;99.90;;;;;;5057056;28;20471;-64
2023/03/23 06:22:10;;;;;;;1.73;1.63;;;11.80;99.90;;;;;;5053666;28;20506;-65
2023/03/23 06:24:37;;;;;;;2.63;2.00;;;11.80;99.90;;;;;;5062556;28;20475;-65
2023/03/23 06:27:04;;;;;;;4.27;1.60;;;11.90;99.90;;;;;;5064474;28;20482;-64
2023/03/23 06:29:33;;;;;;;2.40;2.00;;;11.90;99.90;;;;;;5055189;28;20450;-64
2023/03/23 06:32:03;;;;;;;1.97;1.37;;;11.90;99.90;;;;;;5054495;28;20499;-63
2023/03/23 06:34:30;;;;;;;2.40;1.40;;;11.90;99.90;;;;;;5056280;28;20487;-66
2023/03/23 06:36:57;;;;;;;3.07;1.50;;;12.00;99.90;;;;;;5051127;28;20436;-66
2023/03/23 06:39:24;;;;;;;1.37;1.10;;;12.00;99.90;;;;;;5073512;28;20511;-64
2023/03/23 06:41:51;;;;;;;2.20;1.83;;;12.00;99.90;;;;;;5067578;28;20454;-63
2023/03/23 06:44:19;;;;;;;2.23;1.87;;;12.10;99.90;;;;;;5054955;28;20478;-65
2023/03/23 06:46:48;;;;;;;1.53;1.43;;;12.20;99.90;;;;;;5065997;28;20474;-65
2023/03/23 06:49:15;;;;;;;1.40;1.10;;;12.30;99.90;;;;;;5055148;28;20444;-65
2023/03/23 06:51:42;;;;;;;1.90;1.47;;;12.40;99.90;;;;;;5060816;28;20515;-65
2023/03/23 06:54:09;;;;;;;2.30;1.43;;;12.50;99.90;;;;;;5074045;28;20474;-64
2023/03/23 06:56:36;;;;;;;2.10;1.50;;;12.60;99.90;;;;;;5078421;28;20447;-64
2023/03/23 06:59:03;;;;;;;1.80;1.50;;;12.60;99.90;;;;;;5061448;28;20494;-66
2023/03/23 07:01:30;;;;;;;1.67;1.57;;;12.60;99.90;;;;;;5060411;28;20940;-65
2023/03/23 07:03:58;;;;;;;3.67;1.40;;;12.60;99.90;;;;;;5076001;28;20546;-66
2023/03/23 07:06:26;;;;;;;4.60;1.77;;;12.60;99.90;;;;;;5076993;28;20514;-63
2023/03/23 07:08:52;;;;;;;2.43;1.57;;;12.60;99.90;;;;;;5076037;28;21010;-64
2023/03/23 07:11:19;;;;;;;2.07;1.60;;;12.60;99.90;;;;;;5076044;28;20475;-65
2023/03/23 07:13:46;;;;;;;2.03;1.83;;;12.60;99.90;;;;;;5075421;28;20463;-64
2023/03/23 07:16:13;;;;;;;3.53;1.50;;;12.60;99.90;;;;;;5075707;28;20516;-65
2023/03/23 07:18:40;;;;;;;2.60;1.50;;;12.60;99.90;;;;;;5075155;28;20440;-63
2023/03/23 07:21:08;;;;;;;2.90;1.57;;;12.60;99.90;;;;;;5075111;28;20469;-65
2023/03/23 07:23:35;;;;;;;2.07;1.40;;;12.60;99.90;;;;;;5074842;28;20483;-64
2023/03/23 07:26:03;;;;;;;1.63;1.47;;;12.60;99.90;;;;;;5075190;28;20449;-65
2023/03/23 07:28:30;;;;;;;1.70;1.50;;;12.70;99.90;;;;;;5074739;28;20941;-65
2023/03/23 07:30:57;;;;;;;1.80;1.50;;;12.80;99.90;;;;;;5076110;28;20479;-65
2023/03/23 07:33:23;;;;;;;3.33;1.70;;;12.90;99.90;;;;;;5080987;28;20467;-65
2023/03/23 07:35:50;;;;;;;4.20;1.73;;;12.90;99.90;;;;;;5084506;28;20443;-65
2023/03/23 07:38:19;;;;;;;4.30;1.60;;;13.00;99.90;;;;;;5084187;28;20447;-65
2023/03/23 07:40:47;;;;;;;2.60;1.53;;;13.10;99.90;;;;;;5085346;28;20447;-65
2023/03/23 07:43:14;;;;;;;1.53;1.33;;;13.20;99.90;;;;;;5084493;28;20475;-65
2023/03/23 07:45:40;;;;;;;1.67;1.47;;;13.20;99.90;;;;;;5084862;28;20490;-66
2023/03/23 07:48:07;;;;;;;2.10;1.60;;;13.20;99.90;;;;;;5086623;28;20503;-66
2023/03/23 07:50:35;;;;;;;1.97;1.63;;;13.30;99.90;;;;;;5081663;28;20485;-65
2023/03/23 07:53:02;;;;;;;3.07;1.70;;;13.40;99.90;;;;;;5082956;28;20480;-66
2023/03/23 07:55:31;;;;;;;3.10;1.60;;;13.50;99.90;;;;;;5075066;28;20449;-65
2023/03/23 07:57:58;;;;;;;3.20;1.90;;;13.60;99.90;;;;;;5075014;28;20820;-65
2023/03/23 08:00:25;;;;;;;2.70;1.80;;;13.80;99.90;;;;;;5074342;28;21004;-65
2023/03/23 08:02:55;;;;;;;3.17;1.97;;;13.90;99.90;;;;;;5074601;28;20641;-64
2023/03/23 08:05:23;;;;;;;1.90;1.60;;;14.10;99.90;;;;;;5075355;28;20513;-65
2023/03/23 08:07:50;;;;;;;2.63;2.10;;;14.20;99.90;;;;;;5074793;28;20537;-65
2023/03/23 08:10:17;;;;;;;3.23;1.83;;;14.30;99.90;;;;;;5077143;28;20942;-65
2023/03/23 08:12:46;;;;;;;2.20;1.60;;;14.30;99.90;;;;;;5081006;28;20463;-64
2023/03/23 08:15:15;;;;;;;2.30;2.03;;;14.30;99.90;;;;;;5075663;28;20451;-65
2023/03/23 08:17:42;;;;;;;3.07;1.70;;;14.40;99.90;;;;;;5074763;28;20450;-64
2023/03/23 08:20:12;;;;;;;1.60;1.43;;;14.40;99.90;;;;;;5076606;28;20452;-63
2023/03/23 08:22:40;;;;;;;2.63;1.60;;;14.50;99.90;;;;;;5078354;28;20471;-65
2023/03/23 08:25:09;;;;;;;3.47;1.73;;;14.60;99.90;;;;;;5079564;28;20424;-64
2023/03/23 08:27:37;;;;;;;2.90;1.90;;;14.70;99.90;;;;;;5079188;28;20447;-63
2023/03/23 08:30:07;;;;;;;1.40;1.30;;;14.80;99.30;;;;;;5079211;28;20443;-63
2023/03/23 08:32:34;;;;;;;2.20;1.50;;;15.00;98.60;;;;;;5078886;28;21008;-64
2023/03/23 08:35:02;;;;;;;2.17;1.83;;;15.00;97.90;;;;;;5079434;28;20446;-64
2023/03/23 08:37:29;;;;;;;1.73;1.47;;;14.90;97.20;;;;;;5073515;28;20484;-63
2023/03/23 08:39:57;;;;;;;1.90;1.50;;;14.90;97.20;;;;;;5073676;28;20522;-65
2023/03/23 08:42:25;;;;;;;3.60;2.00;;;14.80;97.20;;;;;;5073404;28;20863;-65
2023/03/23 08:44:52;;;;;;;3.30;2.07;;;14.80;97.40;;;;;;5073533;28;20447;-65
2023/03/23 08:47:20;;;;;;;4.43;2.00;;;14.80;97.00;;;;;;5074845;28;20475;-66
2023/03/23 08:49:52;;;;;;;5.37;1.70;;;14.80;97.00;;;;;;5076350;28;20532;-63
2023/03/23 08:52:19;;;;;;;2.43;1.67;;;14.90;96.80;;;;;;5076794;28;20463;-64
2023/03/23 08:54:47;;;;;;;5.10;1.60;;;15.00;96.40;;;;;;5078664;28;20443;-65
2023/03/23 08:57:15;;;;;;;3.00;2.27;;;15.00;96.30;;;;;;5078615;28;20451;-66
2023/03/23 08:59:42;;;;;;;5.70;1.77;;;15.00;95.20;;;;;;5081956;28;20450;-65
2023/03/23 09:02:11;;;;;;;2.97;1.87;;;15.00;95.30;;;;;;5082484;28;20798;-65
2023/03/23 09:04:42;;;;;;;1.90;1.40;;;15.10;95.30;;;;;;5083572;28;20440;-65
2023/03/23 09:07:10;;;;;;;2.53;1.50;;;15.00;95.20;;;;;;5085329;28;20435;-64
2023/03/23 09:09:38;;;;;;;3.10;2.03;;;15.00;95.10;;;;;;5084856;28;20458;-65
2023/03/23 09:12:06;;;;;;;5.47;2.50;;;15.00;94.80;;;;;;5081902;28;20879;-63
2023/03/23 09:14:33;;;;;;;5.43;2.07;;;15.00;94.50;;;;;;5080184;28;21002;-66
2023/03/23 09:17:00;;;;;;;3.27;1.60;;;14.90;94.50;;;;;;5081227;28;20443;-64
2023/03/23 09:19:27;;;;;;;4.27;1.90;;;14.90;94.60;;;;;;5079970;28;20446;-66
2023/03/23 09:21:56;;;;;;;3.70;1.60;;;14.80;94.70;;;;;;5079494;28;21003;-68
2023/03/23 09:24:23;;;;;;;3.63;2.30;;;14.80;94.80;;;;;;5078115;28;20483;-65
2023/03/23 09:26:50;;;;;;;3.20;1.90;;;14.70;94.80;;;;;;5077862;28;20443;-65
2023/03/23 09:29:18;;;;;;;3.53;1.83;;;14.70;94.90;;;;;;5077296;28;20465;-64
2023/03/23 09:31:46;;;;;;;6.60;2.37;;;14.70;94.80;;;;;;5079269;28;20569;-65
2023/03/23 09:34:15;;;;;;;6.00;2.17;;;14.70;94.80;;;;;;5077384;28;20899;-64
2023/03/23 09:36:42;;;;;;;3.27;1.87;;;14.80;94.60;;;;;;5079713;28;20447;-64
2023/03/23 09:39:11;;;;;;;3.60;1.50;;;14.90;94.40;;;;;;5078548;28;20492;-64
2023/03/23 09:42:09;;;;;;;4.00;2.07;;;15.00;94.00;;;;;;5078142;28;20450;-63
2023/03/23 09:44:47;;;;;;;5.83;2.40;;;14.90;93.70;;;;;;5078530;28;20471;-63
2023/03/23 09:47:24;;;;;;;3.87;2.10;;;14.80;93.90;;;;;;5079000;28;20458;-64
2023/03/23 09:49:55;;;;;;;3.60;1.80;;;14.70;94.10;;;;;;5078485;28;20439;-64
2023/03/23 09:52:23;;;;;;;2.90;2.40;;;14.70;94.10;;;;;;5075835;28;20467;-65
2023/03/23 09:54:53;;;;;;;3.03;1.73;;;14.70;94.20;;;;;;5075910;28;20960;-65
2023/03/23 09:57:26;;;;;;;5.30;2.00;;;14.70;94.20;;;;;;5076051;28;20439;-66
2023/03/23 10:00:01;;;;;;;6.30;1.70;;;14.70;94.00;;;;;;5075850;28;20432;-65
2023/03/23 10:02:31;;;;;;;5.47;2.00;;;14.60;94.30;;;;;;5076951;28;20431;-63
2023/03/23 10:05:23;;;;;;;2.90;1.33;;;14.60;94.10;;;;;;5076975;28;20435;-64
2023/03/23 10:07:50;;;;;;;5.00;2.10;;;14.50;94.20;;;;;;5075908;28;20436;-64
2023/03/23 10:10:18;;;;;;;3.03;2.00;;;14.50;94.40;;;;;;5075717;28;20461;-64
2023/03/23 10:12:54;;;;;;;5.03;2.27;;;14.50;94.60;;;;;;5075856;28;21004;-64
2023/03/23 10:15:27;;;;;;;5.60;2.23;;;14.50;94.60;;;;;;5076665;28;20854;-64
2023/03/23 10:17:58;;;;;;;4.67;1.80;;;14.50;94.60;;;;;;5077397;28;20432;-66
2023/03/23 10:20:45;;;;;;;4.23;2.00;;;14.50;94.60;;;;;;5076471;28;20438;-65
2023/03/23 10:23:25;;;;;;;8.17;2.47;;;14.60;94.20;;;;;;5075805;28;20567;-64
2023/03/23 10:26:00;;;;;;;3.30;2.00;;;14.70;93.80;;;;;;5074707;28;20522;-67
2023/03/23 10:28:38;;;;;;;4.57;2.27;;;14.80;93.20;;;;;;5074757;28;20463;-68
2023/03/23 10:31:09;;;;;;;2.80;1.73;;;14.90;93.00;;;;;;5075967;28;20439;-65
2023/03/23 10:33:42;;;;;;;3.07;1.93;;;15.00;92.40;;;;;;5075234;28;20515;-64
2023/03/23 10:36:13;;;;;;;4.83;2.03;;;15.10;91.90;;;;;;5075744;28;20437;-67
2023/03/23 10:38:44;;;;;;;5.90;1.53;;;15.20;91.70;;;;;;5081951;28;20440;-67
2023/03/23 10:41:14;;;;;;;6.07;2.30;;;15.20;91.20;;;;;;5076954;28;20436;-66
2023/03/23 10:43:42;;;;;;;5.70;2.60;;;15.30;91.10;;;;;;5076745;28;20937;-65
2023/03/23 10:46:22;;;;;;;4.80;2.00;;;15.40;90.70;;;;;;5077968;28;20454;-64
2023/03/23 10:48:50;;;;;;;5.53;2.07;;;15.60;90.10;;;;;;5077517;28;20586;-65
2023/03/23 10:51:20;;;;;;;3.20;1.67;;;15.90;89.10;;;;;;5077476;28;20448;-63
2023/03/23 10:53:52;;;;;;;3.20;1.90;;;16.10;86.20;;;;;;5079775;28;20459;-65
2023/03/23 10:56:27;;;;;;;3.97;1.80;;;16.40;83.00;;;;;;5081002;28;20427;-64
2023/03/23 10:58:54;;;;;;;4.33;2.03;;;16.60;79.60;;;;;;5079362;28;20646;-66
2023/03/23 11:01:31;;;;;;;5.53;2.33;;;16.90;77.40;;;;;;5078771;28;20458;-65
2023/03/23 11:04:00;;;;;;;6.80;2.20;;;17.10;75.90;;;;;;5075402;28;20518;-64
2023/03/23 11:06:32;;;;;;;4.00;2.07;;;17.30;74.40;;;;;;5075155;28;20825;-64
2023/03/23 11:09:03;;;;;;;7.43;2.70;;;17.40;73.30;;;;;;5076124;28;20481;-64
2023/03/23 11:11:37;;;;;;;4.57;2.53;;;17.30;71.80;;;;;;5075863;28;20463;-63
2023/03/23 11:14:17;;;;;;;6.23;2.90;;;17.20;70.60;;;;;;5074778;28;20530;-63
2023/03/23 11:16:46;;;;;;;4.87;2.10;;;17.10;70.20;;;;;;5074798;28;20423;-64
2023/03/23 11:19:14;;;;;;;4.23;1.90;;;17.10;70.40;;;;;;5074240;28;20478;-66
2023/03/23 11:21:48;;;;;;;3.80;1.83;;;17.20;70.40;;;;;;5075353;28;20454;-66
2023/03/23 11:24:16;;;;;;;4.50;2.20;;;17.20;69.50;;;;;;5074810;28;20471;-64
2023/03/23 11:26:47;;;;;;;3.80;2.00;;;17.20;68.50;;;;;;5074916;28;20458;-64
2023/03/23 11:29:16;;;;;;;4.37;1.77;;;17.30;67.90;;;;;;5075337;28;20806;-65
2023/03/23 11:31:46;;;;;;;4.40;2.40;;;17.30;67.50;;;;;;5075542;28;20487;-65
2023/03/23 11:34:17;;;;;;;5.03;2.30;;;17.30;66.70;;;;;;5073901;28;20479;-63
2023/03/23 11:36:50;;;;;;;4.90;1.93;;;17.30;66.10;;;;;;5074818;28;20435;-65
2023/03/23 11:39:22;;;;;;;4.43;2.33;;;17.30;65.80;;;;;;5075127;28;20432;-64
2023/03/23 11:41:51;;;;;;;3.43;1.90;;;17.30;65.50;;;;;;5074257;28;20446;-64
2023/03/23 11:44:18;;;;;;;6.90;2.30;;;17.30;65.50;;;;;;5075157;28;20467;-64
2023/03/23 11:46:56;;;;;;;5.33;2.53;;;17.20;65.50;;;;;;5074154;28;20462;-63
2023/03/23 11:49:36;;;;;;;4.60;2.30;;;17.00;65.50;;;;;;5074000;28;20451;-63
2023/03/23 11:52:11;;;;;;;7.83;2.30;;;16.90;65.60;;;;;;5074124;28;20471;-64
2023/03/23 11:54:43;;;;;;;5.10;2.23;;;16.90;65.70;;;;;;5074210;28;20433;-63
2023/03/23 11:57:13;;;;;;;3.93;2.00;;;16.70;65.30;;;;;;5073674;28;20445;-64
2023/03/23 11:59:41;;;;;;;6.80;2.63;;;16.60;65.50;;;;;;5073646;28;20459;-64
2023/03/23 12:02:30;;;;;;;5.33;2.10;;;16.50;65.90;;;;;;5074049;28;20447;-62
2023/03/23 12:05:08;;;;;;;4.87;2.17;;;16.40;66.20;;;;;;5073140;28;20994;-64
2023/03/23 12:07:50;;;;;;;4.90;2.00;;;16.30;66.40;;;;;;5074073;28;20431;-64
2023/03/23 12:10:28;;;;;;;5.00;2.30;;;16.10;66.90;;;;;;5073500;28;20449;-63
2023/03/23 12:13:11;;;;;;;5.73;2.50;;;15.90;68.80;;;;;;5074006;28;20486;-63
2023/03/23 12:15:45;;;;;;;5.70;2.20;;;15.20;83.70;;;;;;5073482;28;20481;-62
2023/03/23 12:18:23;;;;;;;2.87;1.80;;;14.10;97.60;;;;;;5073515;28;20438;-63
2023/03/23 12:21:00;;;;;;;3.90;2.20;;;13.10;99.90;;;;;;5073003;28;20423;-61
2023/03/23 12:23:39;;;;;;;2.30;1.60;;;12.40;99.90;;;;;;5072674;28;20471;-63
2023/03/23 12:26:18;;;;;;;1.87;1.67;;;12.10;99.90;;;;;;5073868;28;20477;-64
2023/03/23 12:29:19;;;;;;;2.10;1.70;;;11.80;99.90;;;;;;5073952;28;20427;-63
2023/03/23 12:31:59;;;;;;;6.53;1.83;;;11.70;99.90;;;;;;5076280;28;20427;-62
2023/03/23 12:34:36;;;;;;;2.67;2.00;;;11.60;99.90;;;;;;5079681;28;20527;-64
2023/03/23 12:37:31;;;;;;;2.53;1.83;;;11.80;99.90;;;;;;5080701;28;20427;-61
2023/03/23 12:40:22;;;;;;;5.17;1.97;;;11.90;99.90;;;;;;5078570;28;20767;-61
2023/03/23 12:42:58;;;;;;;2.57;1.60;;;12.00;99.90;;;;;;5077339;28;20499;-59
2023/03/23 12:45:44;;;;;;;5.27;2.53;;;12.10;99.90;;;;;;5077773;28;20430;-59
2023/03/23 12:48:15;;;;;;;2.03;1.50;;;12.20;99.90;;;;;;5077559;28;20431;-59
2023/03/23 12:50:48;;;;;;;2.70;1.87;;;12.30;99.90;;;;;;5077475;28;20481;-60
2023/03/23 12:53:18;;;;;;;4.03;1.70;;;12.30;99.90;;;;;;5076684;28;20527;-60
2023/03/23 12:55:49;;;;;;;4.20;1.70;;;12.30;99.90;;;;;;5077354;28;20450;-62
2023/03/23 12:58:20;;;;;;;2.83;1.20;;;12.30;99.90;;;;;;5076973;28;20432;-61
2023/03/23 13:00:57;;;;;;;2.70;1.63;;;12.30;99.90;;;;;;5077556;28;20845;-60
2023/03/23 13:03:30;;;;;;;1.10;1.00;;;12.30;99.90;;;;;;5076571;28;20458;-63
2023/03/23 13:06:04;;;;;;;2.40;1.50;;;12.30;99.90;;;;;;5077130;28;20454;-59